createdAt,value
2019-03-27T21:53:21.219Z,26.70
2019-03-27T21:55:50.025Z,26.80
2019-03-27T21:58:19.061Z,27.00
2019-03-27T22:00:47.612Z,27.10
2019-03-27T22:03:16.105Z,27.10
2019-03-27T22:05:45.259Z,27.30
2019-03-27T22:10:25.743Z,27.40
2019-03-27T22:12:52.415Z,27.50
2019-03-27T22:15:18.955Z,27.60
2019-03-27T22:17:48.562Z,27.50
2019-03-27T22:20:15.094Z,27.60
2019-03-27T22:22:41.634Z,27.70
2019-03-27T22:25:10.977Z,27.60
2019-03-27T22:27:37.267Z,27.70
2019-03-27T22:30:13.606Z,27.80
2019-03-27T22:32:42.246Z,27.70
2019-03-27T22:35:08.465Z,27.70
2019-03-27T22:37:36.545Z,27.70
2019-03-27T22:40:05.905Z,27.80
2019-03-27T22:42:32.115Z,27.80
2019-03-27T22:44:59.835Z,27.80
2019-03-27T22:47:26.047Z,27.80
2019-03-27T22:49:52.172Z,27.80
2019-03-27T22:52:20.984Z,27.80
2019-03-27T22:54:47.100Z,27.70
2019-03-27T22:57:13.211Z,27.50
2019-03-27T22:59:43.663Z,27.40
2019-03-27T23:02:09.771Z,27.40
2019-03-27T23:04:35.987Z,27.30
2019-03-27T23:07:03.586Z,27.30
2019-03-27T23:09:34.590Z,27.20
2019-03-27T23:12:01.028Z,27.20
2019-03-27T23:14:27.152Z,27.10
2019-03-27T23:16:57.418Z,27.00
2019-03-27T23:19:23.635Z,27.00
2019-03-27T23:21:49.839Z,27.00
2019-03-27T23:24:16.324Z,27.00
2019-03-27T23:26:42.699Z,26.90
2019-03-27T23:29:08.831Z,26.90
2019-03-27T23:31:35.064Z,26.90
2019-03-27T23:34:01.184Z,26.90
2019-03-27T23:36:27.415Z,26.80
2019-03-27T23:38:53.532Z,26.80
2019-03-27T23:41:19.671Z,26.80
2019-03-27T23:43:45.909Z,26.80
2019-03-27T23:46:12.125Z,26.80
2019-03-27T23:48:38.478Z,26.80
2019-03-27T23:51:04.698Z,26.70
2019-03-27T23:53:30.915Z,26.70
2019-03-27T23:55:57.155Z,26.70
2019-03-27T23:58:23.268Z,26.70
